createdAt,value
2015-02-10T07:17:10.619Z,43
2015-02-10T07:17:28.840Z,43
2015-02-10T07:17:40.403Z,43
2015-02-10T07:17:51.981Z,43
2015-02-10T07:18:10.153Z,43
2015-02-10T07:18:21.733Z,43
2015-02-10T07:18:39.920Z,43
2015-02-10T07:18:51.592Z,43
2015-02-10T07:19:03.170Z,43
2015-02-10T07:19:14.764Z,43
2015-02-10T07:19:26.375Z,43
2015-02-10T07:19:38.016Z,42
2015-02-10T07:19:49.657Z,42
2015-02-10T07:20:01.297Z,42
2015-02-10T07:20:12.953Z,42
2015-02-10T07:20:24.550Z,42
2015-02-10T07:20:36.144Z,42
2015-02-10T07:20:47.753Z,42
2015-02-10T07:20:59.331Z,42
2015-02-10T07:21:10.910Z,42
2015-02-10T07:21:22.506Z,42
2015-02-10T07:21:34.116Z,42
2015-02-10T07:21:45.709Z,42
2015-02-10T07:22:03.913Z,42
2015-02-10T07:22:15.975Z,42
2015-02-10T07:22:27.523Z,42
2015-02-10T07:22:45.742Z,42
2015-02-10T07:22:57.414Z,42
2015-02-10T07:23:08.992Z,42
2015-02-10T07:23:27.198Z,42
2015-02-10T07:23:38.776Z,42
2015-02-10T07:23:50.354Z,42
2015-02-10T07:24:01.948Z,42
2015-02-10T07:24:20.198Z,42
2015-02-10T07:24:31.872Z,42
2015-02-10T07:24:43.481Z,42
2015-02-10T07:24:55.059Z,42
2015-02-10T07:25:13.278Z,42
2015-02-10T07:25:31.483Z,42
2015-02-10T07:25:43.061Z,42
2015-02-10T07:25:54.639Z,42
2015-02-10T07:26:06.358Z,42
2015-02-10T07:26:17.952Z,42
2015-02-10T07:26:29.580Z,42
2015-02-10T07:26:41.142Z,42
2015-02-10T07:26:52.720Z,42
2015-02-10T07:27:04.330Z,42
2015-02-10T07:27:15.924Z,42
2015-02-10T07:27:40.770Z,42
2015-02-10T07:27:52.520Z,42
2015-02-10T07:28:04.161Z,42
2015-02-10T07:28:28.991Z,42
2015-02-10T07:28:40.569Z,42
2015-02-10T07:28:52.194Z,42
2015-02-10T07:29:03.788Z,42
2015-02-10T07:29:15.382Z,42
2015-02-10T07:29:33.540Z,42
2015-02-10T07:29:45.149Z,42
2015-02-10T07:29:56.743Z,42
2015-02-10T07:30:08.306Z,42
2015-02-10T07:30:19.915Z,42
2015-02-10T07:30:31.434Z,42
2015-02-10T07:30:42.996Z,42
2015-02-10T07:31:07.793Z,42
2015-02-10T07:31:19.355Z,42
2015-02-10T07:31:30.904Z,42
2015-02-10T07:31:49.123Z,42
2015-02-10T07:32:00.982Z,42
2015-02-10T07:32:19.248Z,42
2015-02-10T07:32:30.781Z,42
2015-02-10T07:32:42.375Z,42
2015-02-10T07:32:54.250Z,42
2015-02-10T07:33:12.781Z,42
2015-02-10T07:33:30.986Z,42
2015-02-10T07:33:42.549Z,42
2015-02-10T07:33:54.127Z,42
2015-02-10T07:34:05.690Z,42
2015-02-10T07:34:17.330Z,42
2015-02-10T07:34:35.504Z,42
2015-02-10T07:34:47.113Z,42
2015-02-10T07:34:58.738Z,42
2015-02-10T07:35:10.301Z,42
2015-02-10T07:35:22.223Z,42
2015-02-10T07:35:33.835Z,42
2015-02-10T07:35:45.429Z,42
2015-02-10T07:36:03.788Z,42
2015-02-10T07:36:21.991Z,42
2015-02-10T07:36:33.587Z,42
2015-02-10T07:36:45.181Z,41
2015-02-10T07:37:03.368Z,42
2015-02-10T07:37:14.962Z,41
2015-02-10T07:37:26.509Z,42
2015-02-10T07:37:38.075Z,41
2015-02-10T07:37:56.262Z,42
2015-02-10T07:38:07.903Z,42
2015-02-10T07:38:26.059Z,42
2015-02-10T07:38:37.623Z,42
2015-02-10T07:38:49.186Z,42
2015-02-10T07:39:00.748Z,42
2015-02-10T07:39:12.342Z,41
2015-02-10T07:39:23.905Z,42
2015-02-10T07:39:35.485Z,42
2015-02-10T07:39:47.079Z,42
2015-02-10T07:39:58.625Z,42
2015-02-10T07:40:10.188Z,42
2015-02-10T07:40:28.344Z,42
2015-02-10T07:40:39.941Z,42
2015-02-10T07:40:51.519Z,42
2015-02-10T07:41:03.113Z,42
2015-02-10T07:41:14.894Z,42
2015-02-10T07:41:33.052Z,42
2015-02-10T07:41:44.630Z,42
2015-02-10T07:41:56.255Z,42
2015-02-10T07:42:07.849Z,42
2015-02-10T07:42:26.068Z,42
2015-02-10T07:42:44.257Z,42
2015-02-10T07:42:55.836Z,41
2015-02-10T07:43:14.054Z,42
2015-02-10T07:43:25.617Z,41
2015-02-10T07:43:37.181Z,41
2015-02-10T07:43:48.759Z,41
2015-02-10T07:44:00.322Z,41
2015-02-10T07:44:11.931Z,41
2015-02-10T07:44:25.228Z,41
2015-02-10T07:44:43.653Z,42
2015-02-10T07:44:55.231Z,41
2015-02-10T07:45:13.419Z,41
2015-02-10T07:45:25.012Z,41
2015-02-10T07:45:36.546Z,41
2015-02-10T07:45:48.233Z,41
2015-02-10T07:45:59.858Z,41
2015-02-10T07:46:18.124Z,41
2015-02-10T07:46:29.702Z,41
2015-02-10T07:46:47.892Z,41
2015-02-10T07:46:59.471Z,41
2015-02-10T07:47:11.096Z,41
2015-02-10T07:47:22.767Z,41
2015-02-10T07:47:34.377Z,41
2015-02-10T07:47:59.238Z,41
2015-02-10T07:48:17.457Z,42
2015-02-10T07:48:29.035Z,42
2015-02-10T07:48:40.600Z,42
2015-02-10T07:48:52.178Z,42
2015-02-10T07:49:03.771Z,42
2015-02-10T07:49:15.318Z,42
2015-02-10T07:49:26.850Z,42
2015-02-10T07:49:38.445Z,42
2015-02-10T07:49:50.023Z,42
2015-02-10T07:50:01.602Z,42
2015-02-10T07:50:13.195Z,42
2015-02-10T07:50:25.305Z,42
2015-02-10T07:50:39.995Z,42
2015-02-10T07:51:04.980Z,42
2015-02-10T07:51:16.558Z,42
2015-02-10T07:51:28.620Z,42
2015-02-10T07:51:40.185Z,42
2015-02-10T07:51:58.388Z,42
2015-02-10T07:52:09.966Z,42
2015-02-10T07:52:21.544Z,42
2015-02-10T07:52:33.107Z,42
2015-02-10T07:52:44.687Z,42
2015-02-10T07:52:56.234Z,42
2015-02-10T07:53:07.843Z,42
2015-02-10T07:53:26.015Z,42
2015-02-10T07:53:37.595Z,42
2015-02-10T07:53:49.157Z,42
2015-02-10T07:54:07.345Z,42
2015-02-10T07:54:25.642Z,42
2015-02-10T07:54:37.220Z,42
2015-02-10T07:54:48.785Z,42
2015-02-10T07:55:07.020Z,42
2015-02-10T07:55:18.567Z,42
2015-02-10T07:55:30.145Z,42
2015-02-10T07:55:48.319Z,42
2015-02-10T07:55:59.897Z,42
2015-02-10T07:56:18.194Z,42
2015-02-10T07:56:29.772Z,42
2015-02-10T07:56:41.336Z,42
2015-02-10T07:56:52.946Z,42
2015-02-10T07:57:04.524Z,42
2015-02-10T07:57:16.118Z,42
2015-02-10T07:57:27.727Z,42
2015-02-10T07:57:45.917Z,42
2015-02-10T07:57:57.480Z,42
2015-02-10T07:58:15.652Z,42
2015-02-10T07:58:27.417Z,42
2015-02-10T07:58:45.624Z,42
2015-02-10T07:58:57.233Z,42
2015-02-10T07:59:15.342Z,42
2015-02-10T07:59:26.936Z,42
2015-02-10T07:59:38.515Z,42
2015-02-10T07:59:50.109Z,42
2015-02-10T08:00:01.671Z,42
2015-02-10T08:00:13.234Z,42
2015-02-10T08:00:24.843Z,42
2015-02-10T08:00:36.406Z,42
2015-02-10T08:00:47.987Z,42
2015-02-10T08:00:59.549Z,42
2015-02-10T08:01:17.737Z,42
2015-02-10T08:01:29.331Z,42
2015-02-10T08:01:40.895Z,42
2015-02-10T08:01:59.067Z,42
2015-02-10T08:02:10.645Z,42
2015-02-10T08:02:28.989Z,42
2015-02-10T08:02:40.569Z,42
2015-02-10T08:03:05.397Z,42
2015-02-10T08:03:16.975Z,42
2015-02-10T08:03:28.538Z,42
2015-02-10T08:03:40.056Z,42
2015-02-10T08:03:51.635Z,42
2015-02-10T08:04:03.181Z,42
2015-02-10T08:04:21.400Z,42
2015-02-10T08:04:32.963Z,42
2015-02-10T08:04:51.152Z,42
2015-02-10T08:05:02.715Z,42
2015-02-10T08:05:14.293Z,42
2015-02-10T08:05:25.902Z,42
2015-02-10T08:05:37.465Z,42
2015-02-10T08:05:49.077Z,42
2015-02-10T08:06:00.640Z,42
2015-02-10T08:06:12.202Z,42
2015-02-10T08:06:23.718Z,42
2015-02-10T08:06:35.296Z,42
2015-02-10T08:06:53.517Z,42
2015-02-10T08:07:05.079Z,42
2015-02-10T08:07:16.657Z,42
2015-02-10T08:07:28.220Z,42
2015-02-10T08:07:39.767Z,42
2015-02-10T08:07:51.425Z,42
2015-02-10T08:08:03.050Z,42
2015-02-10T08:08:14.628Z,42
2015-02-10T08:08:26.206Z,42
2015-02-10T08:08:38.269Z,42
2015-02-10T08:08:50.100Z,42
2015-02-10T08:09:07.022Z,42
2015-02-10T08:09:25.272Z,42
2015-02-10T08:09:43.539Z,42
2015-02-10T08:09:55.883Z,42
2015-02-10T08:10:14.133Z,42
2015-02-10T08:10:25.820Z,42
2015-02-10T08:10:50.838Z,42
2015-02-10T08:11:02.447Z,42
2015-02-10T08:11:20.869Z,42
2015-02-10T08:11:32.557Z,42
2015-02-10T08:11:44.432Z,42
2015-02-10T08:11:56.871Z,42
2015-02-10T08:12:15.840Z,42
2015-02-10T08:12:34.059Z,42
2015-02-10T08:12:45.684Z,42
2015-02-10T08:12:57.390Z,42
2015-02-10T08:13:09.015Z,42
2015-02-10T08:13:21.515Z,42
2015-02-10T08:13:33.171Z,41
2015-02-10T08:13:51.408Z,42
2015-02-10T08:14:04.720Z,41
2015-02-10T08:14:30.173Z,42
2015-02-10T08:14:41.814Z,42
2015-02-10T08:14:53.535Z,43
2015-02-10T08:15:11.863Z,43
2015-02-10T08:15:23.550Z,43
2015-02-10T08:15:35.206Z,43
2015-02-10T08:15:46.941Z,44
2015-02-10T08:15:59.709Z,44
2015-02-10T08:16:17.991Z,44
2015-02-10T08:16:29.631Z,44
2015-02-10T08:16:54.540Z,44
2015-02-10T08:17:12.805Z,45
2015-02-10T08:17:24.508Z,45
2015-02-10T08:17:36.165Z,45
2015-02-10T08:17:47.915Z,45
2015-02-10T08:17:59.604Z,45
2015-02-10T08:18:11.385Z,45
2015-02-10T08:18:23.682Z,45
2015-02-10T08:18:35.901Z,45
2015-02-10T08:18:47.573Z,46
2015-02-10T08:19:05.888Z,46
2015-02-10T08:19:18.654Z,46
2015-02-10T08:19:30.373Z,46
2015-02-10T08:19:44.388Z,46
2015-02-10T08:20:02.953Z,46
2015-02-10T08:20:15.625Z,47
2015-02-10T08:20:27.843Z,47
2015-02-10T08:20:48.187Z,46
2015-02-10T08:21:07.767Z,48
2015-02-10T08:21:19.533Z,48
2015-02-10T08:21:31.283Z,48
2015-02-10T08:21:49.549Z,48
2015-02-10T08:22:01.208Z,48
2015-02-10T08:22:29.364Z,48
2015-02-10T08:22:41.036Z,49
2015-02-10T08:22:59.304Z,49
2015-02-10T08:23:17.569Z,49
2015-02-10T08:23:29.304Z,49
2015-02-10T08:23:42.897Z,49
2015-02-10T08:24:05.446Z,50
2015-02-10T08:25:22.449Z,50
2015-02-10T08:25:34.090Z,51
2015-02-10T08:25:45.809Z,51
2015-02-10T08:26:14.451Z,52
2015-02-10T08:27:23.907Z,53
2015-02-10T08:27:42.220Z,53
2015-02-10T08:27:53.970Z,53
2015-02-10T08:28:05.644Z,53
2015-02-10T08:28:18.034Z,53
2015-02-10T08:28:29.691Z,54
2015-02-10T08:28:41.925Z,54
2015-02-10T08:28:54.956Z,54
2015-02-10T08:29:07.130Z,54
2015-02-10T08:29:32.005Z,55
2015-02-10T08:29:45.458Z,55
2015-02-10T08:30:03.711Z,55
2015-02-10T08:30:21.977Z,56
2015-02-10T08:30:33.586Z,58
2015-02-10T08:30:45.227Z,60
2015-02-10T08:30:56.836Z,61
2015-02-10T08:31:08.510Z,63
2015-02-10T08:31:20.073Z,63
2015-02-10T08:31:31.682Z,63
2015-02-10T08:31:43.276Z,64
2015-02-10T08:31:54.916Z,65
2015-02-10T08:32:06.559Z,65
2015-02-10T08:32:18.215Z,65
2015-02-10T08:32:29.793Z,65
2015-02-10T08:32:41.418Z,66
2015-02-10T08:33:06.327Z,66
2015-02-10T08:33:17.920Z,66
2015-02-10T08:33:29.545Z,66
2015-02-10T08:33:41.155Z,66
2015-02-10T08:33:52.764Z,66
2015-02-10T08:34:04.392Z,66
2015-02-10T08:34:16.751Z,65
2015-02-10T08:34:28.330Z,65
2015-02-10T08:34:46.580Z,64
2015-02-10T08:34:58.173Z,64
2015-02-10T08:35:09.816Z,63
2015-02-10T08:35:21.441Z,62
2015-02-10T08:35:46.316Z,61
2015-02-10T08:35:57.910Z,60
2015-02-10T08:36:09.505Z,59
2015-02-10T08:36:21.084Z,59
2015-02-10T08:36:32.677Z,58
2015-02-10T08:36:44.287Z,58
2015-02-10T08:36:55.927Z,58
2015-02-10T08:37:07.571Z,57
2015-02-10T08:37:19.212Z,57
2015-02-10T08:37:37.821Z,56
2015-02-10T08:37:49.477Z,54
2015-02-10T08:38:01.087Z,53
2015-02-10T08:38:13.089Z,53
2015-02-10T08:38:37.932Z,52
2015-02-10T08:38:56.151Z,51
2015-02-10T08:39:08.559Z,51
2015-02-10T08:39:26.809Z,50
2015-02-10T08:39:38.434Z,50
2015-02-10T08:39:56.653Z,50
2015-02-10T08:40:14.937Z,50
2015-02-10T08:40:26.547Z,49
2015-02-10T08:40:44.937Z,49
2015-02-10T08:40:56.515Z,49
2015-02-10T08:41:08.283Z,49
2015-02-10T08:41:19.892Z,48
2015-02-10T08:41:31.611Z,49
2015-02-10T08:41:56.533Z,47
2015-02-10T08:42:08.536Z,47
2015-02-10T08:43:14.632Z,47
2015-02-10T08:43:29.007Z,47
2015-02-10T08:43:45.022Z,47
2015-02-10T08:43:59.585Z,47
2015-02-10T08:44:11.243Z,47
2015-02-10T08:44:22.915Z,46
2015-02-10T08:44:41.243Z,46
2015-02-10T08:44:52.853Z,46
2015-02-10T08:45:05.181Z,46
2015-02-10T08:45:30.026Z,46
2015-02-10T08:45:48.323Z,46
2015-02-10T08:45:59.948Z,46
2015-02-10T08:46:12.733Z,46
2015-02-10T08:46:24.826Z,46
2015-02-10T08:46:43.811Z,46
2015-02-10T08:46:55.420Z,46
2015-02-10T08:47:13.656Z,46
2015-02-10T08:47:31.906Z,46
2015-02-10T08:47:43.563Z,46
2015-02-10T08:47:55.235Z,46
2015-02-10T08:48:13.487Z,46
2015-02-10T08:48:25.205Z,46
2015-02-10T08:48:37.518Z,45
2015-02-10T08:48:49.158Z,45
2015-02-10T08:49:07.440Z,45
2015-02-10T08:49:25.740Z,45
2015-02-10T08:49:38.333Z,45
2015-02-10T08:49:50.615Z,45
2015-02-10T08:50:02.271Z,45
2015-02-10T08:50:13.960Z,45
2015-02-10T08:50:26.851Z,45
2015-02-10T08:50:38.617Z,45
2015-02-10T08:50:56.867Z,45
2015-02-10T08:52:01.182Z,45
2015-02-10T08:52:13.184Z,45
2015-02-10T08:52:24.840Z,45
2015-02-10T08:52:36.481Z,45
2015-02-10T08:52:48.700Z,45
2015-02-10T08:53:00.309Z,45
2015-02-10T08:53:12.043Z,45
2015-02-10T08:53:23.655Z,45
2015-02-10T08:53:35.280Z,45
2015-02-10T08:53:46.858Z,45
2015-02-10T08:53:58.483Z,45
2015-02-10T08:54:10.092Z,45
2015-02-10T08:54:28.345Z,45
2015-02-10T08:54:46.580Z,45
2015-02-10T08:54:58.189Z,45
2015-02-10T08:55:09.814Z,45
2015-02-10T08:55:22.050Z,45
2015-02-10T08:55:33.691Z,45
2015-02-10T08:55:45.300Z,45
2015-02-10T08:55:56.925Z,45
2015-02-10T08:56:08.519Z,45
2015-02-10T08:56:20.130Z,45
2015-02-10T08:56:31.755Z,45
2015-02-10T08:56:43.395Z,45
2015-02-10T08:56:55.145Z,45
2015-02-10T08:57:13.411Z,45
2015-02-10T08:57:31.679Z,45
2015-02-10T08:57:43.304Z,45
2015-02-10T08:57:54.914Z,45
2015-02-10T08:58:06.508Z,45
2015-02-10T08:58:18.150Z,45
2015-02-10T08:58:29.744Z,45
2015-02-10T08:58:41.353Z,44
2015-02-10T08:58:53.010Z,44
2015-02-10T08:59:04.635Z,45
2015-02-10T08:59:22.872Z,45
2015-02-10T08:59:34.559Z,44
2015-02-10T08:59:52.778Z,45
2015-02-10T09:00:04.419Z,44
2015-02-10T09:00:22.718Z,45
2015-02-10T09:00:34.374Z,44
2015-02-10T09:00:46.030Z,44
2015-02-10T09:00:57.686Z,44
2015-02-10T09:01:09.343Z,44
2015-02-10T09:01:20.954Z,44
2015-02-10T09:01:32.595Z,44
2015-02-10T09:01:50.845Z,44
2015-02-10T09:02:03.313Z,44
2015-02-10T09:02:14.954Z,44
2015-02-10T09:02:26.598Z,44
2015-02-10T09:02:38.191Z,44
2015-02-10T09:02:49.848Z,44
2015-02-10T09:03:08.113Z,44
2015-02-10T09:03:19.787Z,44
2015-02-10T09:03:32.225Z,44
2015-02-10T09:03:43.912Z,44
2015-02-10T09:03:55.600Z,44
2015-02-10T09:04:07.240Z,44
2015-02-10T09:04:18.914Z,44
2015-02-10T09:04:30.758Z,44
2015-02-10T09:04:42.399Z,44
2015-02-10T09:04:54.258Z,44
2015-02-10T09:05:05.945Z,44
2015-02-10T09:05:17.620Z,44
2015-02-10T09:05:29.323Z,44
2015-02-10T09:05:47.777Z,44
2015-02-10T09:05:59.433Z,44
2015-02-10T09:06:17.685Z,44
2015-02-10T09:06:29.325Z,44
2015-02-10T09:06:40.935Z,44
2015-02-10T09:06:52.529Z,44
2015-02-10T09:07:10.763Z,44
2015-02-10T09:07:22.407Z,44
2015-02-10T09:07:34.078Z,44
2015-02-10T09:07:45.703Z,44
2015-02-10T09:07:57.328Z,44
2015-02-10T09:08:15.547Z,44
2015-02-10T09:08:27.204Z,44
2015-02-10T09:08:38.829Z,44
2015-02-10T09:08:57.095Z,44
2015-02-10T09:09:08.736Z,44
2015-02-10T09:09:20.395Z,44
2015-02-10T09:09:32.067Z,44
2015-02-10T09:09:43.879Z,44
2015-02-10T09:09:55.567Z,44
2015-02-10T09:10:07.332Z,44
2015-02-10T09:10:32.225Z,44
2015-02-10T09:10:44.022Z,44
2015-02-10T09:11:02.241Z,44
2015-02-10T09:11:27.103Z,44
2015-02-10T09:11:38.759Z,44
2015-02-10T09:11:50.353Z,44
2015-02-10T09:12:09.087Z,44
2015-02-10T09:12:20.761Z,44
2015-02-10T09:12:32.371Z,44
2015-02-10T09:12:44.011Z,44
2015-02-10T09:12:55.621Z,44
2015-02-10T09:13:13.902Z,44
2015-02-10T09:13:25.513Z,44
2015-02-10T09:13:43.873Z,44
2015-02-10T09:13:55.576Z,44
2015-02-10T09:14:07.216Z,44
2015-02-10T09:14:18.953Z,44
2015-02-10T09:14:37.484Z,44
2015-02-10T09:14:55.734Z,44
2015-02-10T09:15:07.343Z,44
2015-02-10T09:15:18.987Z,44
2015-02-10T09:15:30.831Z,44
2015-02-10T09:15:49.409Z,44
2015-02-10T09:16:00.971Z,44
2015-02-10T09:16:12.596Z,44
2015-02-10T09:16:30.818Z,44
2015-02-10T09:16:42.459Z,44
2015-02-10T09:16:54.099Z,44
2015-02-10T09:17:05.678Z,44
2015-02-10T09:17:17.287Z,44
2015-02-10T09:17:28.945Z,44
2015-02-10T09:17:40.570Z,44
2015-02-10T09:17:52.211Z,44
2015-02-10T09:18:03.805Z,44
2015-02-10T09:18:15.445Z,44
2015-02-10T09:18:33.682Z,44
2015-02-10T09:18:52.057Z,44
2015-02-10T09:19:10.510Z,44
2015-02-10T09:19:28.731Z,44
2015-02-10T09:19:46.981Z,44
2015-02-10T09:19:58.638Z,44
2015-02-10T09:20:10.278Z,44
2015-02-10T09:20:21.903Z,44
2015-02-10T09:20:33.545Z,44
2015-02-10T09:20:51.842Z,44
2015-02-10T09:21:10.107Z,44
2015-02-10T09:21:21.717Z,44
2015-02-10T09:21:33.345Z,44
2015-02-10T09:21:45.001Z,44
2015-02-10T09:21:56.595Z,44
2015-02-10T09:22:08.189Z,44
2015-02-10T09:22:26.441Z,44
2015-02-10T09:22:38.081Z,44
2015-02-10T09:22:49.675Z,44
2015-02-10T09:23:01.331Z,44
2015-02-10T09:23:12.987Z,44
2015-02-10T09:23:26.411Z,44
2015-02-10T09:23:38.224Z,44
2015-02-10T09:23:49.989Z,44
2015-02-10T09:24:02.755Z,44
2015-02-10T09:24:14.583Z,44
2015-02-10T09:24:26.742Z,44
2015-02-10T09:24:38.742Z,44
2015-02-10T09:24:50.899Z,44
2015-02-10T09:25:02.977Z,44
2015-02-10T09:25:15.211Z,44
2015-02-10T09:25:26.979Z,44
2015-02-10T09:25:46.198Z,44
2015-02-10T09:25:57.838Z,44
2015-02-10T09:26:09.776Z,44
2015-02-10T09:26:21.541Z,44
2015-02-10T09:26:33.326Z,44
2015-02-10T09:26:45.232Z,44
2015-02-10T09:26:57.091Z,44
2015-02-10T09:27:08.763Z,44
2015-02-10T09:27:20.404Z,44
2015-02-10T09:27:32.062Z,44
2015-02-10T09:27:43.703Z,44
2015-02-10T09:27:55.328Z,44
2015-02-10T09:28:06.984Z,44
2015-02-10T09:28:25.374Z,44
2015-02-10T09:28:37.126Z,44
2015-02-10T09:28:48.876Z,44
2015-02-10T09:29:00.626Z,44
2015-02-10T09:29:12.517Z,44
2015-02-10T09:29:24.392Z,44
2015-02-10T09:29:36.128Z,44
2015-02-10T09:29:48.222Z,44
2015-02-10T09:30:06.503Z,44
2015-02-10T09:30:18.238Z,44
2015-02-10T09:30:29.959Z,44
2015-02-10T09:30:48.255Z,44
2015-02-10T09:31:00.365Z,44
2015-02-10T09:31:18.959Z,44
2015-02-10T09:31:30.696Z,44
2015-02-10T09:31:48.977Z,44
2015-02-10T09:32:00.993Z,44
2015-02-10T09:32:13.196Z,44
2015-02-10T09:32:24.805Z,44
2015-02-10T09:32:36.448Z,44
2015-02-10T09:32:48.089Z,44
2015-02-10T09:33:06.354Z,44
2015-02-10T09:33:24.573Z,44
2015-02-10T09:33:36.170Z,44
2015-02-10T09:33:47.826Z,44
2015-02-10T09:34:06.107Z,44
2015-02-10T09:34:17.701Z,44
2015-02-10T09:34:29.344Z,44
2015-02-10T09:34:41.015Z,44
2015-02-10T09:34:52.625Z,44
2015-02-10T09:35:04.234Z,44
2015-02-10T09:35:15.875Z,44
2015-02-10T09:35:27.500Z,44
2015-02-10T09:35:39.143Z,44
2015-02-10T09:36:41.207Z,44
2015-02-10T09:36:52.816Z,44
2015-02-10T09:37:04.441Z,44
2015-02-10T09:37:16.082Z,44
2015-02-10T09:37:27.723Z,44
2015-02-10T09:37:39.382Z,44
2015-02-10T09:37:50.991Z,44
2015-02-10T09:38:02.601Z,44
2015-02-10T09:38:14.257Z,44
2015-02-10T09:38:25.913Z,44
2015-02-10T09:38:44.228Z,44
2015-02-10T09:38:55.837Z,44
2015-02-10T09:39:07.478Z,44
2015-02-10T09:39:19.071Z,44
2015-02-10T09:39:37.371Z,44
2015-02-10T09:39:55.606Z,44
2015-02-10T09:40:07.215Z,44
2015-02-10T09:40:18.856Z,44
2015-02-10T09:40:37.092Z,44
2015-02-10T09:40:55.358Z,44
2015-02-10T09:41:06.967Z,44
2015-02-10T09:41:18.576Z,44
2015-02-10T09:41:30.201Z,44
2015-02-10T09:41:48.453Z,44
2015-02-10T09:42:00.063Z,44
2015-02-10T09:42:11.703Z,44
2015-02-10T09:42:29.953Z,44
2015-02-10T09:42:41.613Z,44
2015-02-10T09:42:53.238Z,44
2015-02-10T09:43:04.831Z,44
2015-02-10T09:43:16.441Z,44
2015-02-10T09:43:28.066Z,44
2015-02-10T09:43:39.677Z,44
2015-02-10T09:43:57.911Z,44
2015-02-10T09:44:09.568Z,44
2015-02-10T09:44:21.161Z,44
2015-02-10T09:44:32.742Z,44
2015-02-10T09:44:44.351Z,44
2015-02-10T09:44:55.992Z,44
2015-02-10T09:45:07.601Z,44
2015-02-10T09:45:19.195Z,43
2015-02-10T09:45:30.820Z,44
2015-02-10T09:45:49.025Z,44
2015-02-10T09:46:00.634Z,44
2015-02-10T09:46:12.259Z,44
2015-02-10T09:46:30.494Z,44
2015-02-10T09:46:42.106Z,44
2015-02-10T09:46:53.700Z,44
2015-02-10T09:47:18.543Z,44
2015-02-10T09:47:43.420Z,44
2015-02-10T09:47:55.030Z,44
2015-02-10T09:48:13.249Z,44
2015-02-10T09:48:24.905Z,44
2015-02-10T09:48:43.127Z,44
2015-02-10T09:49:01.439Z,44
2015-02-10T09:49:13.080Z,44
2015-02-10T09:49:24.642Z,44
2015-02-10T09:49:36.269Z,44
2015-02-10T09:49:47.910Z,44
2015-02-10T09:49:59.519Z,44
2015-02-10T09:50:11.675Z,43
2015-02-10T09:50:29.910Z,44
2015-02-10T09:50:54.802Z,44
2015-02-10T09:51:06.427Z,44
2015-02-10T09:51:18.052Z,44
2015-02-10T09:51:29.693Z,44
2015-02-10T09:51:41.336Z,43
2015-02-10T09:51:52.961Z,44
2015-02-10T09:52:04.570Z,43
2015-02-10T09:52:22.804Z,44
2015-02-10T09:52:34.429Z,44
2015-02-10T09:52:52.636Z,44
2015-02-10T09:53:04.276Z,44
2015-02-10T09:53:22.479Z,44
2015-02-10T09:53:34.089Z,43
2015-02-10T09:53:52.325Z,44
2015-02-10T09:54:03.950Z,43
2015-02-10T09:54:15.559Z,44
2015-02-10T09:54:27.184Z,44
2015-02-10T09:54:38.811Z,43
2015-02-10T09:55:00.046Z,44
2015-02-10T09:55:11.671Z,44
2015-02-10T09:55:23.249Z,44
2015-02-10T09:55:34.921Z,44
2015-02-10T09:55:46.502Z,44
2015-02-10T09:55:58.127Z,44
2015-02-10T09:56:09.752Z,43
2015-02-10T09:57:15.879Z,44
2015-02-10T09:57:27.504Z,44
2015-02-10T09:57:39.115Z,43
2015-02-10T09:57:50.756Z,44
2015-02-10T09:58:02.397Z,43
2015-02-10T09:58:14.022Z,43
2015-02-10T09:58:25.678Z,43
2015-02-10T09:58:37.305Z,43
2015-02-10T09:59:02.149Z,44
2015-02-10T09:59:13.789Z,44
2015-02-10T09:59:32.086Z,44
2015-02-10T09:59:43.698Z,44
2015-02-10T10:00:01.933Z,44
2015-02-10T10:00:20.198Z,44
2015-02-10T10:00:31.808Z,43
2015-02-10T10:00:43.436Z,44
2015-02-10T10:00:55.123Z,43
2015-02-10T10:01:06.748Z,44
2015-02-10T10:01:24.951Z,44
2015-02-10T10:01:36.578Z,44
2015-02-10T10:01:54.782Z,44
2015-02-10T10:02:06.391Z,44
2015-02-10T10:02:24.625Z,44
2015-02-10T10:02:36.235Z,44
2015-02-10T10:02:47.862Z,44
2015-02-10T10:02:59.455Z,44
2015-02-10T10:03:11.049Z,44
2015-02-10T10:03:29.846Z,44
2015-02-10T10:03:42.146Z,44
2015-02-10T10:03:54.521Z,44
2015-02-10T10:04:06.115Z,44
2015-02-10T10:04:17.724Z,44
2015-02-10T10:04:30.505Z,44
2015-02-10T10:04:42.600Z,44
2015-02-10T10:04:54.631Z,44
2015-02-10T10:05:19.553Z,44
2015-02-10T10:05:37.756Z,44
2015-02-10T10:05:52.384Z,44
2015-02-10T10:06:03.962Z,44
2015-02-10T10:06:15.525Z,44
2015-02-10T10:06:33.712Z,44
2015-02-10T10:06:45.246Z,44
2015-02-10T10:06:56.886Z,44
2015-02-10T10:07:08.480Z,44
2015-02-10T10:07:39.967Z,44
2015-02-10T10:07:51.561Z,44
2015-02-10T10:08:03.139Z,44
2015-02-10T10:08:14.764Z,44
2015-02-10T10:08:26.358Z,44
2015-02-10T10:08:38.327Z,44
2015-02-10T10:08:49.954Z,44
2015-02-10T10:09:08.173Z,44
2015-02-10T10:09:19.782Z,44
2015-02-10T10:09:31.391Z,44
2015-02-10T10:09:43.018Z,44
2015-02-10T10:09:54.643Z,43
2015-02-10T10:10:12.956Z,44
2015-02-10T10:10:31.190Z,44
2015-02-10T10:10:46.334Z,44
2015-02-10T10:10:58.271Z,44
2015-02-10T10:11:10.162Z,43
2015-02-10T10:11:21.912Z,44
2015-02-10T10:11:33.506Z,43
2015-02-10T10:11:45.008Z,43
2015-02-10T10:11:56.648Z,44
2015-02-10T10:12:08.273Z,43
2015-02-10T10:12:19.883Z,44
2015-02-10T10:12:38.117Z,44
2015-02-10T10:12:49.728Z,43
2015-02-10T10:13:01.666Z,43
2015-02-10T10:13:13.353Z,43
2015-02-10T10:13:24.947Z,43
2015-02-10T10:13:36.728Z,43
2015-02-10T10:13:48.355Z,43
2015-02-10T10:14:00.105Z,43
2015-02-10T10:14:11.777Z,43
2015-02-10T10:14:30.105Z,44
2015-02-10T10:14:41.812Z,44
2015-02-10T10:14:53.499Z,43
2015-02-10T10:15:05.155Z,43
2015-02-10T10:15:16.812Z,43
2015-02-10T10:15:28.499Z,43
2015-02-10T10:15:40.202Z,43
2015-02-10T10:15:51.892Z,43
2015-02-10T10:16:03.532Z,43
2015-02-10T10:16:15.173Z,43
2015-02-10T10:16:26.798Z,43
2015-02-10T10:16:38.439Z,44
2015-02-10T10:16:50.067Z,43
2015-02-10T10:17:01.676Z,43
2015-02-10T10:17:19.895Z,44
2015-02-10T10:17:31.504Z,43
2015-02-10T10:17:43.162Z,43
2015-02-10T10:17:54.803Z,43
2015-02-10T10:18:13.053Z,43
2015-02-10T10:18:24.662Z,43
2015-02-10T10:18:36.256Z,43
2015-02-10T10:19:01.164Z,44
2015-02-10T10:19:19.430Z,43
2015-02-10T10:19:31.055Z,43
2015-02-10T10:19:42.664Z,43
2015-02-10T10:19:54.291Z,43
2015-02-10T10:20:05.963Z,43
2015-02-10T10:20:17.557Z,43
2015-02-10T10:20:29.166Z,43
2015-02-10T10:20:54.028Z,43
2015-02-10T10:21:05.653Z,43
2015-02-10T10:21:25.856Z,43
2015-02-10T10:21:37.528Z,43
2015-02-10T10:21:55.812Z,43
2015-02-10T10:22:07.421Z,43
2015-02-10T10:22:25.640Z,43
2015-02-10T10:22:37.234Z,43
2015-02-10T10:22:48.909Z,43
2015-02-10T10:23:00.518Z,43
2015-02-10T10:23:12.127Z,43
2015-02-10T10:23:37.393Z,43
2015-02-10T10:23:52.942Z,43
2015-02-10T10:24:11.176Z,43
2015-02-10T10:24:22.770Z,43
2015-02-10T10:24:34.333Z,43
2015-02-10T10:24:45.928Z,43
2015-02-10T10:24:57.553Z,43
2015-02-10T10:25:09.178Z,43
2015-02-10T10:25:27.413Z,43
2015-02-10T10:25:45.647Z,43
2015-02-10T10:25:57.258Z,43
2015-02-10T10:26:08.946Z,43
2015-02-10T10:26:20.571Z,43
2015-02-10T10:26:32.180Z,43
2015-02-10T10:26:50.449Z,43
2015-02-10T10:27:02.090Z,43
2015-02-10T10:27:13.668Z,43
2015-02-10T10:27:25.261Z,43
2015-02-10T10:27:36.871Z,43
2015-02-10T10:27:48.498Z,43
2015-02-10T10:28:00.092Z,43
2015-02-10T10:28:11.701Z,43
2015-02-10T10:28:29.935Z,43
2015-02-10T10:28:41.592Z,43
2015-02-10T10:28:53.219Z,43
2015-02-10T10:29:04.844Z,43
2015-02-10T10:29:16.562Z,43
2015-02-10T10:29:28.250Z,43
2015-02-10T10:29:39.844Z,43
2015-02-10T10:29:51.440Z,43
2015-02-10T10:30:09.659Z,44
2015-02-10T10:30:21.268Z,43
2015-02-10T10:30:32.893Z,43
2015-02-10T10:30:44.690Z,43
2015-02-10T10:31:03.052Z,43
2015-02-10T10:31:14.692Z,43
2015-02-10T10:31:26.380Z,43
2015-02-10T10:31:37.989Z,43
2015-02-10T10:31:49.616Z,43
2015-02-10T10:32:07.835Z,43
2015-02-10T10:32:26.085Z,43
2015-02-10T10:32:44.397Z,43
2015-02-10T10:32:56.057Z,43
2015-02-10T10:33:07.682Z,43
2015-02-10T10:33:19.291Z,43
2015-02-10T10:33:44.197Z,43
2015-02-10T10:33:55.793Z,43
2015-02-10T10:34:20.668Z,43
2015-02-10T10:34:32.371Z,43
2015-02-10T10:34:44.012Z,43
2015-02-10T10:34:55.639Z,43
2015-02-10T10:35:07.248Z,43
2015-02-10T10:35:18.951Z,43
2015-02-10T10:35:30.639Z,43
2015-02-10T10:35:48.938Z,43
2015-02-10T10:36:07.172Z,43